sensor_id;sensor_type;location;lat;lon;timestamp;pressure;altitude;pressure_sealevel;temperature;humidity
81243;BME280;70716;50.074;14.496;2023-08-06T00:01:56;98111.09;;;15.03;89.66
81243;BME280;70716;50.074;14.496;2023-08-06T00:04:23;98115.06;;;15.05;89.52
81243;BME280;70716;50.074;14.496;2023-08-06T00:06:48;98107.19;;;15.04;89.55
81243;BME280;70716;50.074;14.496;2023-08-06T00:09:14;98108.75;;;15.01;89.79
81243;BME280;70716;50.074;14.496;2023-08-06T00:11:42;98118.13;;;15.00;89.68
81243;BME280;70716;50.074;14.496;2023-08-06T00:14:09;98117.00;;;15.05;89.59
81243;BME280;70716;50.074;14.496;2023-08-06T00:16:35;98111.97;;;15.07;89.29
81243;BME280;70716;50.074;14.496;2023-08-06T00:19:00;98111.53;;;15.05;89.69
81243;BME280;70716;50.074;14.496;2023-08-06T00:21:58;98091.94;;;15.06;89.38
81243;BME280;70716;50.074;14.496;2023-08-06T00:24:34;98088.34;;;15.02;89.77
81243;BME280;70716;50.074;14.496;2023-08-06T00:27:00;98075.03;;;15.01;89.27
81243;BME280;70716;50.074;14.496;2023-08-06T00:29:26;98074.59;;;14.99;89.49
81243;BME280;70716;50.074;14.496;2023-08-06T00:31:51;98072.56;;;14.96;89.92
81243;BME280;70716;50.074;14.496;2023-08-06T00:34:18;98073.31;;;14.93;90.06
81243;BME280;70716;50.074;14.496;2023-08-06T00:36:43;98066.81;;;14.81;89.86
81243;BME280;70716;50.074;14.496;2023-08-06T00:39:09;98073.47;;;14.80;90.50
81243;BME280;70716;50.074;14.496;2023-08-06T00:41:34;98077.44;;;14.83;90.23
81243;BME280;70716;50.074;14.496;2023-08-06T00:44:00;98071.94;;;14.83;90.41
81243;BME280;70716;50.074;14.496;2023-08-06T00:46:26;98073.22;;;14.89;90.09
81243;BME280;70716;50.074;14.496;2023-08-06T00:48:52;98068.53;;;14.90;90.22
81243;BME280;70716;50.074;14.496;2023-08-06T00:51:18;98061.91;;;14.91;89.95
81243;BME280;70716;50.074;14.496;2023-08-06T00:53:51;98054.47;;;14.91;90.12
81243;BME280;70716;50.074;14.496;2023-08-06T00:56:17;98057.28;;;14.95;90.04
81243;BME280;70716;50.074;14.496;2023-08-06T00:58:43;98061.59;;;14.96;89.52
81243;BME280;70716;50.074;14.496;2023-08-06T01:01:12;98057.28;;;14.95;89.61
81243;BME280;70716;50.074;14.496;2023-08-06T01:03:38;98049.63;;;14.84;89.63
81243;BME280;70716;50.074;14.496;2023-08-06T01:06:03;98046.97;;;14.88;89.65
81243;BME280;70716;50.074;14.496;2023-08-06T01:08:50;98047.38;;;14.90;89.49
81243;BME280;70716;50.074;14.496;2023-08-06T01:11:39;98040.75;;;14.91;89.04
81243;BME280;70716;50.074;14.496;2023-08-06T01:14:15;98037.56;;;14.89;89.50
81243;BME280;70716;50.074;14.496;2023-08-06T01:16:43;98033.03;;;14.77;89.82
81243;BME280;70716;50.074;14.496;2023-08-06T01:19:29;98031.97;;;14.63;90.01
81243;BME280;70716;50.074;14.496;2023-08-06T01:21:57;98026.06;;;14.61;90.35
81243;BME280;70716;50.074;14.496;2023-08-06T01:24:23;98024.03;;;14.58;90.55
81243;BME280;70716;50.074;14.496;2023-08-06T01:27:07;98017.84;;;14.61;90.46
81243;BME280;70716;50.074;14.496;2023-08-06T01:29:46;98025.25;;;14.60;90.12
81243;BME280;70716;50.074;14.496;2023-08-06T01:32:15;98032.34;;;14.61;90.32
81243;BME280;70716;50.074;14.496;2023-08-06T01:34:43;98029.94;;;14.60;90.34
81243;BME280;70716;50.074;14.496;2023-08-06T01:37:19;98037.69;;;14.54;90.36
81243;BME280;70716;50.074;14.496;2023-08-06T01:39:45;98040.06;;;14.56;90.80
81243;BME280;70716;50.074;14.496;2023-08-06T01:42:11;98036.94;;;14.57;90.72
81243;BME280;70716;50.074;14.496;2023-08-06T01:44:36;98026.84;;;14.61;90.62
81243;BME280;70716;50.074;14.496;2023-08-06T01:47:05;98025.41;;;14.67;90.30
81243;BME280;70716;50.074;14.496;2023-08-06T01:52:28;98022.72;;;14.71;90.09
81243;BME280;70716;50.074;14.496;2023-08-06T01:54:57;98025.09;;;14.72;90.09
81243;BME280;70716;50.074;14.496;2023-08-06T01:57:23;98022.38;;;14.72;90.03
81243;BME280;70716;50.074;14.496;2023-08-06T01:59:48;98024.69;;;14.70;89.82
81243;BME280;70716;50.074;14.496;2023-08-06T02:02:14;98023.94;;;14.73;89.87
81243;BME280;70716;50.074;14.496;2023-08-06T02:04:42;98015.38;;;14.75;89.59
81243;BME280;70716;50.074;14.496;2023-08-06T02:07:07;98015.84;;;14.80;89.51
81243;BME280;70716;50.074;14.496;2023-08-06T02:09:33;98011.09;;;14.77;89.30
81243;BME280;70716;50.074;14.496;2023-08-06T02:12:03;98016.53;;;14.74;89.51
81243;BME280;70716;50.074;14.496;2023-08-06T02:14:29;98018.41;;;14.70;89.56
81243;BME280;70716;50.074;14.496;2023-08-06T02:16:54;98018.41;;;14.50;90.64
81243;BME280;70716;50.074;14.496;2023-08-06T02:19:20;98013.28;;;14.49;91.00
81243;BME280;70716;50.074;14.496;2023-08-06T02:21:48;98012.13;;;14.50;90.84
81243;BME280;70716;50.074;14.496;2023-08-06T02:24:14;98003.25;;;14.57;90.13
81243;BME280;70716;50.074;14.496;2023-08-06T02:26:42;98002.16;;;14.61;90.07
81243;BME280;70716;50.074;14.496;2023-08-06T02:29:07;97995.47;;;14.59;90.08
81243;BME280;70716;50.074;14.496;2023-08-06T02:31:41;97992.44;;;14.64;89.67
81243;BME280;70716;50.074;14.496;2023-08-06T02:34:07;98001.03;;;14.62;90.21
81243;BME280;70716;50.074;14.496;2023-08-06T02:36:35;98008.44;;;14.62;89.58
81243;BME280;70716;50.074;14.496;2023-08-06T02:39:19;98008.81;;;14.60;90.13
81243;BME280;70716;50.074;14.496;2023-08-06T02:41:48;98019.50;;;14.65;90.19
81243;BME280;70716;50.074;14.496;2023-08-06T02:44:16;98002.75;;;14.70;89.74
81243;BME280;70716;50.074;14.496;2023-08-06T02:46:42;98002.75;;;14.70;89.58
81243;BME280;70716;50.074;14.496;2023-08-06T02:49:09;97995.72;;;14.73;89.71
81243;BME280;70716;50.074;14.496;2023-08-06T02:51:34;97988.97;;;14.67;90.05
81243;BME280;70716;50.074;14.496;2023-08-06T02:54:09;97983.91;;;14.69;90.04
81243;BME280;70716;50.074;14.496;2023-08-06T02:56:34;97992.13;;;14.69;89.43
81243;BME280;70716;50.074;14.496;2023-08-06T02:59:00;97994.09;;;14.68;89.54
81243;BME280;70716;50.074;14.496;2023-08-06T03:01:28;97990.69;;;14.75;89.13
81243;BME280;70716;50.074;14.496;2023-08-06T03:03:57;97983.31;;;14.79;88.85
81243;BME280;70716;50.074;14.496;2023-08-06T03:06:22;97985.56;;;14.73;89.33
81243;BME280;70716;50.074;14.496;2023-08-06T03:08:48;97980.81;;;14.70;89.61
81243;BME280;70716;50.074;14.496;2023-08-06T03:11:13;97975.31;;;14.70;89.71
81243;BME280;70716;50.074;14.496;2023-08-06T03:13:48;97971.78;;;14.70;89.31
81243;BME280;70716;50.074;14.496;2023-08-06T03:16:22;97972.56;;;14.70;89.36
81243;BME280;70716;50.074;14.496;2023-08-06T03:18:47;97975.38;;;14.74;88.98
81243;BME280;70716;50.074;14.496;2023-08-06T03:21:16;97963.97;;;14.72;89.24
81243;BME280;70716;50.074;14.496;2023-08-06T03:23:41;97966.28;;;14.70;89.29
81243;BME280;70716;50.074;14.496;2023-08-06T03:26:13;97959.16;;;14.65;89.48
81243;BME280;70716;50.074;14.496;2023-08-06T03:28:41;97950.94;;;14.65;89.67
81243;BME280;70716;50.074;14.496;2023-08-06T03:31:07;97950.06;;;14.61;89.95
81243;BME280;70716;50.074;14.496;2023-08-06T03:33:35;97943.00;;;14.60;90.19
81243;BME280;70716;50.074;14.496;2023-08-06T03:36:01;97949.28;;;14.61;89.96
81243;BME280;70716;50.074;14.496;2023-08-06T03:38:27;97946.47;;;14.57;89.90
81243;BME280;70716;50.074;14.496;2023-08-06T03:40:57;97943.06;;;14.64;90.23
81243;BME280;70716;50.074;14.496;2023-08-06T03:43:22;97946.38;;;14.73;89.71
81243;BME280;70716;50.074;14.496;2023-08-06T03:45:48;97946.31;;;14.69;89.79
81243;BME280;70716;50.074;14.496;2023-08-06T03:48:15;97943.19;;;14.71;89.43
81243;BME280;70716;50.074;14.496;2023-08-06T03:50:40;97937.59;;;14.64;89.53
81243;BME280;70716;50.074;14.496;2023-08-06T03:53:06;97936.84;;;14.67;89.48
81243;BME280;70716;50.074;14.496;2023-08-06T03:55:31;97932.97;;;14.68;89.20
81243;BME280;70716;50.074;14.496;2023-08-06T03:57:57;97933.25;;;14.63;89.93
81243;BME280;70716;50.074;14.496;2023-08-06T04:00:22;97929.53;;;14.51;90.05
81243;BME280;70716;50.074;14.496;2023-08-06T04:02:51;97929.53;;;14.51;89.94
81243;BME280;70716;50.074;14.496;2023-08-06T04:05:16;97922.53;;;14.54;90.28
81243;BME280;70716;50.074;14.496;2023-08-06T04:07:42;97921.44;;;14.59;89.44
81243;BME280;70716;50.074;14.496;2023-08-06T04:10:08;97916.31;;;14.57;89.46
81243;BME280;70716;50.074;14.496;2023-08-06T04:12:33;97915.47;;;14.53;89.94
81243;BME280;70716;50.074;14.496;2023-08-06T04:15:21;97911.06;;;14.48;90.01
81243;BME280;70716;50.074;14.496;2023-08-06T04:17:47;97900.78;;;14.42;90.93
81243;BME280;70716;50.074;14.496;2023-08-06T04:20:12;97898.88;;;14.46;90.27
81243;BME280;70716;50.074;14.496;2023-08-06T04:22:38;97897.69;;;14.43;90.16
81243;BME280;70716;50.074;14.496;2023-08-06T04:25:04;97896.22;;;14.49;89.52
81243;BME280;70716;50.074;14.496;2023-08-06T04:27:32;97899.00;;;14.53;89.94
81243;BME280;70716;50.074;14.496;2023-08-06T04:30:01;97901.63;;;14.46;90.39
81243;BME280;70716;50.074;14.496;2023-08-06T04:32:27;97895.78;;;14.47;90.09
81243;BME280;70716;50.074;14.496;2023-08-06T04:35:13;97897.44;;;14.52;89.52
81243;BME280;70716;50.074;14.496;2023-08-06T04:37:38;97895.97;;;14.58;89.63
81243;BME280;70716;50.074;14.496;2023-08-06T04:40:16;97890.53;;;14.62;89.30
81243;BME280;70716;50.074;14.496;2023-08-06T04:43:02;97888.66;;;14.66;89.19
81243;BME280;70716;50.074;14.496;2023-08-06T04:45:27;97883.66;;;14.71;89.19
81243;BME280;70716;50.074;14.496;2023-08-06T04:48:13;97878.91;;;14.68;89.09
81243;BME280;70716;50.074;14.496;2023-08-06T04:50:54;97881.66;;;14.68;88.89
81243;BME280;70716;50.074;14.496;2023-08-06T04:53:20;97878.25;;;14.75;89.14
81243;BME280;70716;50.074;14.496;2023-08-06T04:56:14;97874.41;;;14.79;89.24
81243;BME280;70716;50.074;14.496;2023-08-06T04:58:43;97881.84;;;14.79;89.14
81243;BME280;70716;50.074;14.496;2023-08-06T05:01:08;97866.22;;;14.83;89.16
81243;BME280;70716;50.074;14.496;2023-08-06T05:03:36;97874.81;;;14.81;89.45
81243;BME280;70716;50.074;14.496;2023-08-06T05:06:01;97873.19;;;14.77;89.57
81243;BME280;70716;50.074;14.496;2023-08-06T05:08:27;97868.13;;;14.79;89.64
81243;BME280;70716;50.074;14.496;2023-08-06T05:10:52;97870.19;;;14.85;89.18
81243;BME280;70716;50.074;14.496;2023-08-06T05:13:18;97867.03;;;14.83;89.33
81243;BME280;70716;50.074;14.496;2023-08-06T05:15:43;97868.66;;;14.88;89.30
81243;BME280;70716;50.074;14.496;2023-08-06T05:18:11;97867.56;;;14.93;89.67
81243;BME280;70716;50.074;14.496;2023-08-06T05:20:37;97875.09;;;14.99;88.61
81243;BME280;70716;50.074;14.496;2023-08-06T05:23:03;97875.91;;;15.00;88.66
81243;BME280;70716;50.074;14.496;2023-08-06T05:25:31;97872.03;;;15.04;88.78
81243;BME280;70716;50.074;14.496;2023-08-06T05:27:57;97875.91;;;15.00;88.51
81243;BME280;70716;50.074;14.496;2023-08-06T05:30:22;97877.47;;;15.01;88.57
81243;BME280;70716;50.074;14.496;2023-08-06T05:32:51;97874.69;;;14.97;88.46
81243;BME280;70716;50.074;14.496;2023-08-06T05:35:17;97867.66;;;15.00;88.64
81243;BME280;70716;50.074;14.496;2023-08-06T05:37:43;97863.47;;;15.09;88.25
81243;BME280;70716;50.074;14.496;2023-08-06T05:40:33;97866.38;;;15.20;87.33
81243;BME280;70716;50.074;14.496;2023-08-06T05:42:59;97865.22;;;15.21;87.44
81243;BME280;70716;50.074;14.496;2023-08-06T05:45:24;97857.81;;;15.25;87.49
81243;BME280;70716;50.074;14.496;2023-08-06T05:47:55;97854.75;;;15.30;87.36
81243;BME280;70716;50.074;14.496;2023-08-06T05:50:59;97848.56;;;15.37;87.43
81243;BME280;70716;50.074;14.496;2023-08-06T05:53:27;97869.00;;;15.39;87.24
81243;BME280;70716;50.074;14.496;2023-08-06T05:56:04;97865.16;;;15.44;86.90
81243;BME280;70716;50.074;14.496;2023-08-06T05:58:29;97869.91;;;15.47;87.27
81243;BME280;70716;50.074;14.496;2023-08-06T06:00:56;97873.13;;;15.52;86.67
81243;BME280;70716;50.074;14.496;2023-08-06T06:03:21;97863.28;;;15.51;86.57
81243;BME280;70716;50.074;14.496;2023-08-06T06:05:47;97859.81;;;15.55;85.82
81243;BME280;70716;50.074;14.496;2023-08-06T06:08:13;97852.81;;;15.57;85.71
81243;BME280;70716;50.074;14.496;2023-08-06T06:10:51;97845.38;;;15.61;85.44
81243;BME280;70716;50.074;14.496;2023-08-06T06:13:16;97847.00;;;15.66;85.40
81243;BME280;70716;50.074;14.496;2023-08-06T06:16:08;97851.75;;;15.69;85.35
81243;BME280;70716;50.074;14.496;2023-08-06T06:18:33;97862.00;;;15.72;85.46
81243;BME280;70716;50.074;14.496;2023-08-06T06:20:59;97861.25;;;15.75;85.77
81243;BME280;70716;50.074;14.496;2023-08-06T06:23:25;97855.34;;;15.73;86.20
81243;BME280;70716;50.074;14.496;2023-08-06T06:25:53;97858.06;;;15.73;86.97
81243;BME280;70716;50.074;14.496;2023-08-06T06:28:19;97857.69;;;15.74;86.46
81243;BME280;70716;50.074;14.496;2023-08-06T06:30:47;97849.75;;;15.66;86.90
81243;BME280;70716;50.074;14.496;2023-08-06T06:33:31;97850.59;;;15.70;87.67
81243;BME280;70716;50.074;14.496;2023-08-06T06:35:56;97848.25;;;15.72;87.39
81243;BME280;70716;50.074;14.496;2023-08-06T06:38:22;97846.97;;;15.62;88.42
81243;BME280;70716;50.074;14.496;2023-08-06T06:41:14;97845.78;;;15.60;88.72
81243;BME280;70716;50.074;14.496;2023-08-06T06:43:40;97848.16;;;15.65;89.07
81243;BME280;70716;50.074;14.496;2023-08-06T06:46:05;97847.66;;;15.56;89.12
81243;BME280;70716;50.074;14.496;2023-08-06T06:48:53;97851.66;;;15.58;88.58
81243;BME280;70716;50.074;14.496;2023-08-06T06:51:18;97856.44;;;15.68;88.92
81243;BME280;70716;50.074;14.496;2023-08-06T06:53:43;97853.78;;;15.75;87.66
81243;BME280;70716;50.074;14.496;2023-08-06T06:56:09;97851.25;;;15.93;87.56
81243;BME280;70716;50.074;14.496;2023-08-06T06:58:34;97855.13;;;15.89;87.75
81243;BME280;70716;50.074;14.496;2023-08-06T07:01:07;97858.00;;;15.99;87.73
81243;BME280;70716;50.074;14.496;2023-08-06T07:04:04;97846.00;;;16.18;87.17
81243;BME280;70716;50.074;14.496;2023-08-06T07:06:31;97840.53;;;16.22;84.76
81243;BME280;70716;50.074;14.496;2023-08-06T07:09:36;97847.34;;;16.35;83.33
81243;BME280;70716;50.074;14.496;2023-08-06T07:12:14;97848.56;;;16.37;83.16
81243;BME280;70716;50.074;14.496;2023-08-06T07:21:25;97833.94;;;16.67;83.04
81243;BME280;70716;50.074;14.496;2023-08-06T07:23:51;97839.06;;;16.68;84.24
81243;BME280;70716;50.074;14.496;2023-08-06T07:26:29;97836.75;;;16.74;84.10
81243;BME280;70716;50.074;14.496;2023-08-06T07:28:58;97838.72;;;16.80;83.81
81243;BME280;70716;50.074;14.496;2023-08-06T07:34:39;97836.28;;;16.65;84.75
81243;BME280;70716;50.074;14.496;2023-08-06T07:37:36;97842.66;;;16.79;83.55
81243;BME280;70716;50.074;14.496;2023-08-06T07:40:29;97836.31;;;16.68;84.22
81243;BME280;70716;50.074;14.496;2023-08-06T07:45:57;97830.84;;;16.79;83.13
81243;BME280;70716;50.074;14.496;2023-08-06T07:48:26;97825.34;;;16.79;81.91
81243;BME280;70716;50.074;14.496;2023-08-06T07:50:53;97825.22;;;16.61;83.50
81243;BME280;70716;50.074;14.496;2023-08-06T07:53:40;97824.47;;;16.64;83.18
81243;BME280;70716;50.074;14.496;2023-08-06T07:56:17;97817.50;;;16.81;82.83
81243;BME280;70716;50.074;14.496;2023-08-06T07:59:12;97815.50;;;16.71;82.34
81243;BME280;70716;50.074;14.496;2023-08-06T08:05:56;97815.38;;;17.11;80.42
81243;BME280;70716;50.074;14.496;2023-08-06T08:09:02;97807.47;;;17.10;80.06
81243;BME280;70716;50.074;14.496;2023-08-06T08:11:57;97798.75;;;16.97;81.13
81243;BME280;70716;50.074;14.496;2023-08-06T08:17:54;97810.97;;;17.00;80.51
81243;BME280;70716;50.074;14.496;2023-08-06T08:20:23;97812.19;;;17.09;80.16
81243;BME280;70716;50.074;14.496;2023-08-06T08:23:16;97803.19;;;17.16;79.75
81243;BME280;70716;50.074;14.496;2023-08-06T08:26:18;97808.69;;;17.16;80.64
81243;BME280;70716;50.074;14.496;2023-08-06T08:29:07;97806.25;;;17.00;80.68
81243;BME280;70716;50.074;14.496;2023-08-06T08:32:20;97805.84;;;17.02;80.35
81243;BME280;70716;50.074;14.496;2023-08-06T08:35:11;97808.50;;;16.84;80.56
81243;BME280;70716;50.074;14.496;2023-08-06T08:41:46;97803.06;;;16.95;78.47
81243;BME280;70716;50.074;14.496;2023-08-06T08:50:52;97793.91;;;16.73;79.98
81243;BME280;70716;50.074;14.496;2023-08-06T08:57:20;97794.69;;;16.73;80.11
81243;BME280;70716;50.074;14.496;2023-08-06T09:00:24;97789.13;;;16.66;80.52
81243;BME280;70716;50.074;14.496;2023-08-06T09:06:17;97780.13;;;16.76;79.43
81243;BME280;70716;50.074;14.496;2023-08-06T09:09:34;97783.31;;;16.82;79.25
81243;BME280;70716;50.074;14.496;2023-08-06T09:12:41;97780.31;;;17.05;78.64
81243;BME280;70716;50.074;14.496;2023-08-06T09:19:14;97773.03;;;17.44;76.63
81243;BME280;70716;50.074;14.496;2023-08-06T09:22:04;97774.22;;;17.50;76.65
81243;BME280;70716;50.074;14.496;2023-08-06T09:24:39;97773.94;;;17.73;76.27
81243;BME280;70716;50.074;14.496;2023-08-06T09:27:29;97775.94;;;17.80;75.11
81243;BME280;70716;50.074;14.496;2023-08-06T09:30:03;97775.91;;;17.73;74.80
81243;BME280;70716;50.074;14.496;2023-08-06T09:32:52;97779.91;;;17.86;74.66
81243;BME280;70716;50.074;14.496;2023-08-06T09:35:23;97774.34;;;17.72;74.14
81243;BME280;70716;50.074;14.496;2023-08-06T09:38:24;97775.56;;;17.85;73.66
81243;BME280;70716;50.074;14.496;2023-08-06T09:40:56;97770.03;;;17.81;72.41
81243;BME280;70716;50.074;14.496;2023-08-06T09:43:43;97764.50;;;17.67;73.04
81243;BME280;70716;50.074;14.496;2023-08-06T09:49:53;97768.03;;;17.71;74.49
81243;BME280;70716;50.074;14.496;2023-08-06T09:53:07;97759.41;;;17.80;73.75
81243;BME280;70716;50.074;14.496;2023-08-06T09:59:24;97768.06;;;17.78;73.94
81243;BME280;70716;50.074;14.496;2023-08-06T10:02:14;97758.19;;;17.67;75.37
81243;BME280;70716;50.074;14.496;2023-08-06T10:04:50;97760.47;;;17.54;76.72
81243;BME280;70716;50.074;14.496;2023-08-06T10:11:42;97756.59;;;17.66;77.08
81243;BME280;70716;50.074;14.496;2023-08-06T10:18:08;97745.53;;;17.59;78.26
81243;BME280;70716;50.074;14.496;2023-08-06T10:21:11;97740.88;;;17.73;75.57
81243;BME280;70716;50.074;14.496;2023-08-06T10:31:12;97733.84;;;18.26;72.81
81243;BME280;70716;50.074;14.496;2023-08-06T10:33:49;97733.84;;;18.26;72.98
81243;BME280;70716;50.074;14.496;2023-08-06T10:36:33;97738.19;;;18.37;72.15
81243;BME280;70716;50.074;14.496;2023-08-06T10:38:58;97728.72;;;18.10;72.76
81243;BME280;70716;50.074;14.496;2023-08-06T10:41:30;97729.53;;;18.28;73.62
81243;BME280;70716;50.074;14.496;2023-08-06T10:44:14;97725.59;;;18.40;72.98
81243;BME280;70716;50.074;14.496;2023-08-06T10:46:45;97731.84;;;18.58;71.06
81243;BME280;70716;50.074;14.496;2023-08-06T10:52:19;97728.75;;;18.42;70.68
81243;BME280;70716;50.074;14.496;2023-08-06T10:55:09;97724.78;;;18.36;70.91
81243;BME280;70716;50.074;14.496;2023-08-06T10:58:04;97731.50;;;18.45;69.98
81243;BME280;70716;50.074;14.496;2023-08-06T11:01:35;97732.66;;;18.52;69.01
81243;BME280;70716;50.074;14.496;2023-08-06T11:04:19;97731.47;;;18.67;69.57
81243;BME280;70716;50.074;14.496;2023-08-06T11:07:10;97725.94;;;18.77;68.17
81243;BME280;70716;50.074;14.496;2023-08-06T11:16:32;97731.47;;;18.77;66.55
81243;BME280;70716;50.074;14.496;2023-08-06T11:19:45;97730.25;;;18.93;65.28
81243;BME280;70716;50.074;14.496;2023-08-06T11:22:28;97728.31;;;18.83;66.69
81243;BME280;70716;50.074;14.496;2023-08-06T11:25:08;97729.09;;;18.72;66.58
81243;BME280;70716;50.074;14.496;2023-08-06T11:31:29;97729.50;;;18.74;66.74
81243;BME280;70716;50.074;14.496;2023-08-06T11:37:54;97740.16;;;18.44;64.53
81243;BME280;70716;50.074;14.496;2023-08-06T11:40:49;97737.41;;;18.40;65.60
81243;BME280;70716;50.074;14.496;2023-08-06T11:43:36;97743.31;;;18.46;65.99
81243;BME280;70716;50.074;14.496;2023-08-06T11:46:02;97738.59;;;18.46;66.63
81243;BME280;70716;50.074;14.496;2023-08-06T11:48:30;97742.13;;;18.43;66.86
81243;BME280;70716;50.074;14.496;2023-08-06T11:50:56;97734.66;;;18.33;64.34
81243;BME280;70716;50.074;14.496;2023-08-06T11:53:36;97734.22;;;18.56;64.92
81243;BME280;70716;50.074;14.496;2023-08-06T11:56:04;97733.03;;;18.50;65.68
81243;BME280;70716;50.074;14.496;2023-08-06T11:58:30;97733.81;;;18.54;65.69
81243;BME280;70716;50.074;14.496;2023-08-06T12:01:04;97729.88;;;18.59;65.42
81243;BME280;70716;50.074;14.496;2023-08-06T12:03:30;97725.19;;;18.63;65.47
81243;BME280;70716;50.074;14.496;2023-08-06T12:05:59;97729.50;;;18.74;66.26
81243;BME280;70716;50.074;14.496;2023-08-06T12:08:30;97733.84;;;18.75;67.37
81243;BME280;70716;50.074;14.496;2023-08-06T12:10:56;97731.88;;;18.15;69.79
81243;BME280;70716;50.074;14.496;2023-08-06T12:13:44;97734.63;;;17.91;72.30
81243;BME280;70716;50.074;14.496;2023-08-06T12:16:13;97734.63;;;18.12;72.70
81243;BME280;70716;50.074;14.496;2023-08-06T12:18:44;97727.16;;;18.20;71.81
81243;BME280;70716;50.074;14.496;2023-08-06T12:21:27;97721.22;;;17.96;72.77
81243;BME280;70716;50.074;14.496;2023-08-06T12:23:53;97721.63;;;17.80;73.42
81243;BME280;70716;50.074;14.496;2023-08-06T12:26:23;97719.28;;;18.22;71.72
81243;BME280;70716;50.074;14.496;2023-08-06T12:28:51;97720.06;;;18.40;71.86
81243;BME280;70716;50.074;14.496;2023-08-06T12:31:20;97715.72;;;18.18;72.22
81243;BME280;70716;50.074;14.496;2023-08-06T12:33:49;97718.47;;;18.03;72.33
81243;BME280;70716;50.074;14.496;2023-08-06T12:36:20;97718.09;;;18.19;72.44
81243;BME280;70716;50.074;14.496;2023-08-06T12:38:49;97715.31;;;18.62;71.62
81243;BME280;70716;50.074;14.496;2023-08-06T12:41:26;97722.41;;;18.63;70.67
81243;BME280;70716;50.074;14.496;2023-08-06T12:43:58;97723.19;;;18.49;71.18
81243;BME280;70716;50.074;14.496;2023-08-06T12:46:29;97722.44;;;18.17;71.71
81243;BME280;70716;50.074;14.496;2023-08-06T12:49:06;97721.25;;;18.21;72.16
81243;BME280;70716;50.074;14.496;2023-08-06T12:51:32;97716.53;;;18.22;71.45
81243;BME280;70716;50.074;14.496;2023-08-06T12:54:02;97721.25;;;18.21;71.95
81243;BME280;70716;50.074;14.496;2023-08-06T12:56:37;97712.16;;;17.99;73.50
81243;BME280;70716;50.074;14.496;2023-08-06T12:59:03;97712.97;;;17.82;73.84
81243;BME280;70716;50.074;14.496;2023-08-06T13:01:32;97718.00;;;17.59;76.00
81243;BME280;70716;50.074;14.496;2023-08-06T13:04:00;97725.53;;;17.69;75.55
81243;BME280;70716;50.074;14.496;2023-08-06T13:06:25;97716.09;;;17.70;75.71
81243;BME280;70716;50.074;14.496;2023-08-06T13:08:54;97720.81;;;17.76;76.22
81243;BME280;70716;50.074;14.496;2023-08-06T13:11:19;97728.72;;;17.89;77.08
81243;BME280;70716;50.074;14.496;2023-08-06T13:13:48;97728.34;;;18.11;76.65
81243;BME280;70716;50.074;14.496;2023-08-06T13:16:16;97727.16;;;18.34;74.51
81243;BME280;70716;50.074;14.496;2023-08-06T13:19:00;97727.16;;;18.34;71.96
81243;BME280;70716;50.074;14.496;2023-08-06T13:24:29;97725.50;;;19.04;69.51
81243;BME280;70716;50.074;14.496;2023-08-06T13:27:10;97723.47;;;19.15;67.45
81243;BME280;70716;50.074;14.496;2023-08-06T13:29:39;97730.09;;;19.35;66.25
81243;BME280;70716;50.074;14.496;2023-08-06T13:32:07;97728.13;;;19.36;66.64
81243;BME280;70716;50.074;14.496;2023-08-06T13:34:33;97724.91;;;19.52;66.11
81243;BME280;70716;50.074;14.496;2023-08-06T13:36:58;97719.81;;;19.39;65.79
81243;BME280;70716;50.074;14.496;2023-08-06T13:39:27;97718.16;;;19.60;64.54
81243;BME280;70716;50.074;14.496;2023-08-06T13:41:53;97724.94;;;19.37;65.11
81243;BME280;70716;50.074;14.496;2023-08-06T13:44:18;97713.09;;;19.51;64.42
81243;BME280;70716;50.074;14.496;2023-08-06T13:46:44;97713.44;;;19.57;62.87
81243;BME280;70716;50.074;14.496;2023-08-06T13:49:12;97718.78;;;19.89;62.15
81243;BME280;70716;50.074;14.496;2023-08-06T13:51:52;97718.69;;;20.03;61.21
81243;BME280;70716;50.074;14.496;2023-08-06T13:54:18;97720.44;;;19.75;61.28
81243;BME280;70716;50.074;14.496;2023-08-06T13:56:46;97721.03;;;20.04;61.67
81243;BME280;70716;50.074;14.496;2023-08-06T13:59:14;97717.78;;;20.17;61.38
81243;BME280;70716;50.074;14.496;2023-08-06T14:01:40;97719.75;;;20.20;61.56
81243;BME280;70716;50.074;14.496;2023-08-06T14:04:12;97711.63;;;19.91;61.19
81243;BME280;70716;50.074;14.496;2023-08-06T14:06:38;97721.66;;;20.23;60.52
81243;BME280;70716;50.074;14.496;2023-08-06T14:09:03;97707.44;;;20.24;61.11
81243;BME280;70716;50.074;14.496;2023-08-06T14:11:29;97703.88;;;20.24;60.05
81243;BME280;70716;50.074;14.496;2023-08-06T14:13:56;97718.69;;;19.99;61.48
81243;BME280;70716;50.074;14.496;2023-08-06T14:16:24;97715.22;;;19.88;61.90
81243;BME280;70716;50.074;14.496;2023-08-06T14:18:50;97710.97;;;19.69;62.93
81243;BME280;70716;50.074;14.496;2023-08-06T14:21:16;97714.47;;;19.81;63.89
81243;BME280;70716;50.074;14.496;2023-08-06T14:23:47;97712.44;;;19.88;64.99
81243;BME280;70716;50.074;14.496;2023-08-06T14:26:37;97712.25;;;19.61;65.52
81243;BME280;70716;50.074;14.496;2023-08-06T14:29:26;97718.09;;;19.67;65.65
81243;BME280;70716;50.074;14.496;2023-08-06T14:32:00;97725.94;;;19.75;65.17
81243;BME280;70716;50.074;14.496;2023-08-06T14:35:04;97729.09;;;19.81;64.46
81243;BME280;70716;50.074;14.496;2023-08-06T14:52:37;97725.09;;;19.89;62.98
81243;BME280;70716;50.074;14.496;2023-08-06T14:55:03;97724.19;;;20.06;62.63
81243;BME280;70716;50.074;14.496;2023-08-06T14:57:29;97727.78;;;20.00;62.09
81243;BME280;70716;50.074;14.496;2023-08-06T15:00:34;97724.34;;;19.78;61.57
81243;BME280;70716;50.074;14.496;2023-08-06T15:03:00;97719.97;;;19.84;62.33
81243;BME280;70716;50.074;14.496;2023-08-06T15:06:09;97725.94;;;19.79;61.29